Time;durP1;ratioP1;P1;durP2;ratioP2;P2;SDS_P1;SDS_P2;PMS_P1;PMS_P2;Temp;Humidity;BMP_temperature;BMP_pressure;BME280_temperature;BME280_humidity;BME280_pressure;Samples;Min_cycle;Max_cycle;Signal;HPM_P1;HPM_P2
2023/05/06 08:10:07;;;;;;;7.20;4.25;;;;;;;17.18;84.40;100532.78;5079304;27;20960;-72
2023/05/06 08:12:34;;;;;;;4.63;3.25;;;;;;;17.55;82.94;100531.09;5072734;28;20401;-72
2023/05/06 08:15:01;;;;;;;4.75;3.35;;;;;;;17.76;81.25;100530.88;5073321;28;20395;-72
2023/05/06 08:17:26;;;;;;;4.43;2.22;;;;;;;17.86;80.28;100531.59;5076120;28;20397;-72
2023/05/06 08:19:51;;;;;;;3.10;2.00;;;;;;;18.02;79.19;100534.97;5070261;28;20751;-72
2023/05/06 08:22:16;;;;;;;4.40;2.03;;;;;;;18.17;77.64;100537.56;5068404;28;20820;-72
2023/05/06 08:24:42;;;;;;;1.90;1.30;;;;;;;18.33;76.08;100538.19;5073934;28;20404;-73
2023/05/06 08:27:07;;;;;;;5.10;1.70;;;;;;;18.47;74.36;100539.91;5066530;28;20396;-75
2023/05/06 08:29:32;;;;;;;1.63;1.15;;;;;;;18.62;73.53;100530.66;5073721;28;20422;-76
2023/05/06 08:31:58;;;;;;;2.10;1.30;;;;;;;18.84;71.34;100538.28;5067527;28;20405;-72
2023/05/06 08:34:23;;;;;;;3.30;1.40;;;;;;;19.07;69.35;100534.63;5067181;28;20393;-75
2023/05/06 08:36:48;;;;;;;1.67;1.57;;;;;;;19.26;69.19;100532.69;5069681;28;20404;-75
2023/05/06 08:39:13;;;;;;;5.13;1.90;;;;;;;19.42;68.01;100536.84;5069496;28;20760;-74
2023/05/06 08:41:40;;;;;;;2.50;2.25;;;;;;;19.52;68.63;100535.84;5070662;28;20395;-74
2023/05/06 08:44:07;;;;;;;2.70;2.00;;;;;;;19.59;67.13;100534.31;5070363;28;20518;-75
2023/05/06 08:46:32;;;;;;;1.88;1.75;;;;;;;19.71;66.94;100527.53;5067776;28;20398;-75
2023/05/06 08:48:58;;;;;;;1.60;1.60;;;;;;;19.87;67.14;100532.44;5079759;28;20953;-75
2023/05/06 08:51:28;;;;;;;1.25;1.20;;;;;;;19.97;65.88;100531.41;5078709;28;20402;-74
2023/05/06 08:53:54;;;;;;;2.33;1.70;;;;;;;20.08;65.57;100532.84;5069498;28;20400;-75
2023/05/06 08:56:26;;;;;;;2.50;1.48;;;;;;;20.21;65.44;100523.78;5079306;28;20853;-72
2023/05/06 08:58:52;;;;;;;1.60;1.50;;;;;;;20.43;64.28;100528.56;5074368;28;20438;-75
2023/05/06 09:01:18;;;;;;;1.58;1.35;;;;;;;20.61;62.68;100531.16;5068652;28;20906;-74
2023/05/06 09:03:43;;;;;;;4.10;1.50;;;;;;;20.65;62.19;100531.34;5067583;28;20397;-74
2023/05/06 09:06:09;;;;;;;2.30;1.50;;;;;;;20.73;61.79;100527.88;5067065;28;20407;-75
2023/05/06 09:08:35;;;;;;;1.67;1.57;;;;;;;20.80;61.77;100527.44;5081886;28;20521;-72
2023/05/06 09:11:00;;;;;;;1.25;1.13;;;;;;;20.83;61.37;100527.66;5098643;28;20961;-74
2023/05/06 09:13:26;;;;;;;1.30;0.90;;;;;;;20.89;61.12;100525.56;5099600;28;20389;-74
2023/05/06 09:15:52;;;;;;;1.27;1.10;;;;;;;21.08;60.65;100527.03;5100324;28;20401;-75
2023/05/06 09:18:18;;;;;;;2.90;1.30;;;;;;;21.39;60.05;100529.06;5083690;28;20399;-75
2023/05/06 09:20:47;;;;;;;1.80;1.70;;;;;;;21.59;59.10;100528.53;5088486;28;20856;-75
2023/05/06 09:23:14;;;;;;;1.20;1.13;;;;;;;21.65;58.36;100524.50;5084477;28;20472;-75
2023/05/06 09:25:41;;;;;;;2.55;1.50;;;;;;;21.66;57.75;100518.69;5071632;28;20800;-75
2023/05/06 09:28:11;;;;;;;1.30;1.23;;;;;;;21.97;56.99;100526.13;5075248;28;20399;-75
2023/05/06 09:30:41;;;;;;;1.25;1.23;;;;;;;22.34;55.87;100520.09;5087944;28;20401;-75
2023/05/06 09:33:07;;;;;;;2.77;1.10;;;;;;;22.52;55.52;100521.75;5085084;28;20382;-74
2023/05/06 09:35:36;;;;;;;3.17;1.42;;;;;;;22.50;55.69;100515.72;5085818;28;20402;-75
2023/05/06 09:38:02;;;;;;;1.20;0.88;;;;;;;22.61;55.03;100514.28;5074079;28;20398;-75
2023/05/06 09:40:28;;;;;;;1.10;1.00;;;;;;;22.60;54.39;100501.59;5082988;28;20394;-74
2023/05/06 09:42:55;;;;;;;2.20;1.13;;;;;;;22.56;54.62;100502.56;5084347;28;20392;-74
2023/05/06 09:45:20;;;;;;;3.20;0.80;;;;;;;22.63;54.45;100509.25;5069693;28;20402;-74
2023/05/06 09:47:48;;;;;;;0.90;0.70;;;;;;;22.85;53.07;100504.75;5076773;28;20427;-74
2023/05/06 09:50:14;;;;;;;1.63;1.25;;;;;;;23.27;52.38;100507.47;5073887;28;20444;-74
2023/05/06 09:52:43;;;;;;;947.25;840.28;;;;;;;23.63;51.29;100500.72;5071711;28;20410;-74
2023/05/06 09:55:10;;;;;;;1999.90;999.90;;;;;;;23.80;50.12;100499.84;5079662;28;20408;-74
2023/05/06 09:57:36;;;;;;;1999.90;999.90;;;;;;;24.17;48.49;100501.81;5054933;28;20400;-75
2023/05/06 10:00:03;;;;;;;1999.90;999.90;;;;;;;24.56;46.97;100506.13;5071178;28;20456;-74
2023/05/06 10:02:29;;;;;;;1999.90;999.90;;;;;;;24.89;46.31;100497.91;5075558;28;20746;-74
2023/05/06 10:04:57;;;;;;;1999.90;999.90;;;;;;;25.17;45.13;100493.38;5084570;28;20760;-74
2023/05/06 10:07:24;;;;;;;1999.90;999.90;;;;;;;25.63;44.90;100498.63;5074687;28;20403;-75
2023/05/06 10:09:50;;;;;;;1999.90;999.90;;;;;;;26.34;43.39;100491.84;5072642;28;20419;-74
2023/05/06 10:12:16;;;;;;;1999.90;999.90;;;;;;;26.84;43.29;100494.22;5078490;28;20454;-75
2023/05/06 10:14:42;;;;;;;1999.90;999.90;;;;;;;27.38;41.96;100486.16;5088263;28;20398;-74
2023/05/06 10:17:08;;;;;;;709.77;654.97;;;;;;;27.92;41.72;100492.81;5073689;28;20406;-75
2023/05/06 10:19:35;;;;;;;1.17;1.13;;;;;;;28.52;41.27;100487.88;5085926;28;20390;-75
2023/05/06 10:22:25;;;;;;;1.02;0.65;;;;;;;28.66;40.01;100485.41;5060619;28;20401;-76
2023/05/06 10:25:00;;;;;;;5.90;0.98;;;;;;;28.72;39.85;100490.31;5085877;28;20402;-75
2023/05/06 10:27:29;;;;;;;2.13;0.68;;;;;;;28.89;38.79;100485.50;5094538;28;20482;-76
2023/05/06 10:29:58;;;;;;;1.40;0.98;;;;;;;29.02;38.49;100487.75;5062600;28;20757;-76
2023/05/06 10:32:26;;;;;;;0.90;0.90;;;;;;;29.25;37.52;100485.06;5077111;28;20393;-74
2023/05/06 10:34:56;;;;;;;1.10;0.50;;;;;;;29.46;36.81;100473.47;5084531;28;20396;-73
2023/05/06 10:37:24;;;;;;;1.17;0.80;;;;;;;30.03;35.57;100467.72;5078219;28;20467;-73
2023/05/06 10:39:52;;;;;;;1.50;0.70;;;;;;;30.79;34.39;100466.41;5081792;28;20491;-72
2023/05/06 10:42:17;;;;;;;1.80;0.80;;;;;;;31.52;32.54;100464.06;5081467;28;20430;-72
2023/05/06 10:44:55;;;;;;;2.75;0.70;;;;;;;31.42;32.09;100459.16;5052542;28;21725;-73
2023/05/06 10:47:21;;;;;;;0.65;0.65;;;;;;;31.65;31.81;100462.56;5076115;28;20441;-73
2023/05/06 10:50:17;;;;;;;2.03;0.80;;;;;;;31.96;31.24;100464.03;5075008;28;20447;-73
2023/05/06 10:52:44;;;;;;;0.57;0.57;;;;;;;32.10;30.90;100452.97;5075755;28;20500;-74
2023/05/06 10:55:32;;;;;;;2.35;1.00;;;;;;;32.13;31.13;100447.38;5086008;28;20977;-73
2023/05/06 10:58:17;;;;;;;3.05;0.70;;;;;;;32.07;30.91;100443.34;5076523;28;20409;-73
2023/05/06 11:00:55;;;;;;;2.42;0.70;;;;;;;31.90;30.60;100446.78;5085072;28;20406;-73
2023/05/06 11:03:22;;;;;;;1.20;0.80;;;;;;;32.11;30.24;100446.19;5083746;28;20406;-74
2023/05/06 11:05:53;;;;;;;0.80;0.50;;;;;;;32.36;29.54;100445.13;5080800;28;20479;-73
2023/05/06 11:08:23;;;;;;;1.75;0.55;;;;;;;32.72;29.32;100439.72;5058437;28;20458;-76
2023/05/06 11:10:49;;;;;;;0.95;0.52;;;;;;;32.99;28.68;100434.59;5078793;28;20431;-77
2023/05/06 11:13:28;;;;;;;6.03;0.50;;;;;;;33.18;28.23;100437.06;5080724;28;20442;-76
2023/05/06 11:15:55;;;;;;;1.73;0.50;;;;;;;33.40;28.05;100433.09;5079916;28;20908;-77
2023/05/06 11:18:23;;;;;;;0.65;0.57;;;;;;;33.08;28.19;100432.22;5079094;28;20411;-75
2023/05/06 11:21:09;;;;;;;1.90;0.70;;;;;;;33.26;28.03;100433.09;5067030;28;20486;-75
2023/05/06 11:23:40;;;;;;;1.10;0.80;;;;;;;33.21;28.02;100434.28;5068183;28;20880;-75
2023/05/06 11:26:10;;;;;;;0.90;0.40;;;;;;;33.29;27.80;100435.09;5083246;28;20396;-75
2023/05/06 11:28:37;;;;;;;0.80;0.80;;;;;;;33.16;27.31;100429.03;5086118;28;20386;-75
2023/05/06 11:31:03;;;;;;;0.43;0.40;;;;;;;33.24;26.72;100427.06;5087117;28;20473;-75
2023/05/06 11:33:32;;;;;;;1.50;0.47;;;;;;;32.74;26.62;100421.28;5084005;28;20459;-75
2023/05/06 11:35:58;;;;;;;0.50;0.50;;;;;;;32.53;27.25;100425.97;5078335;28;20415;-75
2023/05/06 11:38:44;;;;;;;0.40;0.40;;;;;;;32.55;27.68;100430.00;5085899;28;20426;-75
2023/05/06 11:41:10;;;;;;;0.30;0.30;;;;;;;32.27;28.40;100427.06;5080539;28;20414;-75
2023/05/06 11:43:36;;;;;;;2.10;0.50;;;;;;;32.12;28.24;100416.94;5077182;28;20876;-75
2023/05/06 11:46:01;;;;;;;0.93;0.33;;;;;;;31.84;28.57;100415.53;5083791;28;20388;-75
2023/05/06 11:48:26;;;;;;;2.00;0.40;;;;;;;31.59;28.85;100416.50;5086977;28;20860;-75
2023/05/06 11:50:53;;;;;;;0.40;0.40;;;;;;;31.45;29.27;100411.56;5086801;28;20397;-75
2023/05/06 11:53:21;;;;;;;1.27;0.40;;;;;;;31.36;30.04;100414.69;5079068;28;20402;-75
2023/05/06 11:55:48;;;;;;;0.77;0.40;;;;;;;31.22;29.75;100406.13;5083202;28;20388;-75
2023/05/06 11:58:18;;;;;;;0.43;0.43;;;;;;;31.34;30.00;100403.06;5085504;28;20398;-75
2023/05/06 12:00:49;;;;;;;0.90;0.50;;;;;;;31.37;30.06;100407.91;5086875;28;20380;-75
2023/05/06 12:03:14;;;;;;;0.55;0.52;;;;;;;31.49;30.59;100408.78;5048810;28;20483;-76
2023/05/06 12:05:41;;;;;;;0.70;0.27;;;;;;;31.66;29.85;100405.38;5083373;28;20850;-75
2023/05/06 12:08:06;;;;;;;2.60;0.70;;;;;;;31.80;30.00;100406.28;5086444;28;20410;-75
2023/05/06 12:10:32;;;;;;;0.70;0.30;;;;;;;31.82;29.97;100403.09;5086795;28;20435;-75
2023/05/06 12:12:57;;;;;;;0.60;0.60;;;;;;;31.64;29.37;100410.56;5072122;28;20396;-75
2023/05/06 12:15:23;;;;;;;1.55;0.77;;;;;;;31.51;29.96;100409.25;5079034;28;20407;-75
2023/05/06 12:17:48;;;;;;;3.97;0.77;;;;;;;31.44;30.05;100409.16;5085974;28;20391;-75
2023/05/06 12:20:14;;;;;;;1999.90;999.90;;;;;;;31.51;29.76;100404.47;5080430;28;20396;-75
2023/05/06 12:22:39;;;;;;;1532.30;395.20;;;;;;;31.51;29.88;100392.44;5081715;28;20402;-75
2023/05/06 12:25:14;;;;;;;1999.90;999.90;;;;;;;31.49;29.29;100394.78;5082806;28;20394;-75
2023/05/06 12:27:39;;;;;;;1999.90;999.90;;;;;;;31.39;29.63;100388.72;5086040;28;20389;-75
2023/05/06 12:30:07;;;;;;;1974.80;784.63;;;;;;;31.46;29.60;100387.16;5086245;28;20451;-75
2023/05/06 12:32:33;;;;;;;1999.90;999.90;;;;;;;31.65;29.51;100384.94;5072402;28;20407;-75
2023/05/06 12:35:04;;;;;;;1999.90;999.90;;;;;;;31.79;28.60;100389.84;5082458;28;20399;-75
2023/05/06 12:37:29;;;;;;;1999.90;821.17;;;;;;;31.79;28.78;100381.44;5086018;28;20421;-74
2023/05/06 12:39:55;;;;;;;1999.90;738.60;;;;;;;31.73;28.87;100391.41;5086147;28;20442;-75
2023/05/06 12:42:21;;;;;;;1864.28;102.38;;;;;;;31.52;29.80;100380.03;5064308;28;20966;-75
2023/05/06 12:44:47;;;;;;;1999.90;999.90;;;;;;;31.33;29.75;100383.84;5078244;28;20497;-72
2023/05/06 12:47:24;;;;;;;1999.90;999.90;;;;;;;31.07;29.05;100375.59;5084811;28;20396;-75
2023/05/06 12:49:51;;;;;;;1999.90;999.90;;;;;;;30.81;29.71;100377.31;5086170;28;20476;-75
2023/05/06 12:52:19;;;;;;;1999.90;999.90;;;;;;;31.19;28.91;100376.13;5085238;28;20387;-72
2023/05/06 12:54:45;;;;;;;1999.90;999.90;;;;;;;31.41;28.65;100368.72;5059702;28;20739;-72
2023/05/06 12:57:11;;;;;;;1999.90;591.63;;;;;;;31.46;28.85;100354.34;5089651;28;20423;-72
2023/05/06 12:59:36;;;;;;;1999.90;596.65;;;;;;;31.43;28.39;100360.72;5089665;28;20413;-73
2023/05/06 13:02:03;;;;;;;1999.90;442.40;;;;;;;31.62;28.74;100354.09;5089544;28;20539;-73
2023/05/06 13:04:28;;;;;;;1999.90;856.55;;;;;;;31.82;28.82;100347.03;5080360;28;20406;-73
2023/05/06 13:06:54;;;;;;;0.43;0.43;;;;;;;31.91;28.39;100357.91;5080561;28;20390;-74
2023/05/06 13:09:20;;;;;;;0.85;0.63;;;;;;;32.09;28.09;100353.22;5080383;28;20422;-73
2023/05/06 13:11:45;;;;;;;0.80;0.70;;;;;;;32.58;27.75;100347.88;5089694;28;20394;-73
2023/05/06 13:14:10;;;;;;;1.80;0.50;;;;;;;32.69;27.05;100351.53;5086680;28;20390;-73
2023/05/06 13:16:37;;;;;;;0.70;0.70;;;;;;;32.71;26.88;100351.91;5087580;28;20387;-73
2023/05/06 13:19:03;;;;;;;1.10;0.70;;;;;;;33.11;26.45;100342.41;5080417;28;20907;-73
2023/05/06 13:21:30;;;;;;;0.90;0.60;;;;;;;33.37;26.03;100341.19;5089795;28;20424;-72
2023/05/06 13:23:56;;;;;;;0.68;0.68;;;;;;;33.71;25.71;100341.59;5077378;28;20395;-74
2023/05/06 13:26:21;;;;;;;0.57;0.50;;;;;;;33.85;25.92;100339.56;5086524;28;20384;-73
2023/05/06 13:28:46;;;;;;;0.67;0.43;;;;;;;33.83;25.49;100330.72;5079739;28;20393;-73
2023/05/06 13:31:11;;;;;;;0.80;0.80;;;;;;;33.88;25.47;100329.53;5077196;28;20806;-73
2023/05/06 13:33:37;;;;;;;0.53;0.53;;;;;;;34.05;24.53;100328.69;5083115;28;20389;-73
2023/05/06 13:36:02;;;;;;;1.43;0.43;;;;;;;34.11;24.26;100326.25;5085604;28;20392;-72
2023/05/06 13:38:28;;;;;;;0.53;0.50;;;;;;;34.22;24.73;100321.38;5089084;28;20476;-73
2023/05/06 13:40:53;;;;;;;0.53;0.53;;;;;;;34.33;24.22;100313.72;5083674;28;20913;-73
2023/05/06 13:43:19;;;;;;;1.45;0.75;;;;;;;34.34;24.21;100323.78;5063407;28;20533;-73
2023/05/06 13:45:45;;;;;;;1.20;0.50;;;;;;;34.12;24.28;100319.44;5080135;28;20388;-73
2023/05/06 13:48:13;;;;;;;1.00;0.40;;;;;;;34.21;23.92;100317.81;5087872;28;20380;-73
2023/05/06 13:50:42;;;;;;;0.45;0.43;;;;;;;34.11;24.29;100309.38;5088955;28;20890;-73
2023/05/06 13:53:07;;;;;;;0.70;0.50;;;;;;;33.72;24.60;100312.31;5083348;28;20445;-73
2023/05/06 13:55:33;;;;;;;0.50;0.30;;;;;;;33.38;24.54;100309.09;5085237;28;20933;-73
2023/05/06 13:57:58;;;;;;;0.63;0.50;;;;;;;33.28;24.84;100313.53;5082327;28;20392;-73
2023/05/06 14:00:23;;;;;;;1.33;0.50;;;;;;;32.98;25.29;100303.84;5089019;28;20451;-75
2023/05/06 14:02:49;;;;;;;0.50;0.50;;;;;;;32.87;25.40;100301.81;5086160;28;20402;-73
2023/05/06 14:05:14;;;;;;;0.47;0.37;;;;;;;32.57;25.63;100298.56;5086323;28;20485;-73
2023/05/06 14:07:40;;;;;;;2.93;0.47;;;;;;;32.65;25.76;100299.38;5085779;28;20747;-73
2023/05/06 14:10:06;;;;;;;0.93;0.47;;;;;;;32.80;25.32;100298.22;5088749;28;20397;-73
2023/05/06 14:12:31;;;;;;;2.50;0.50;;;;;;;32.68;25.02;100298.59;5082680;28;20485;-73
2023/05/06 14:14:56;;;;;;;0.80;0.47;;;;;;;32.58;25.42;100296.56;5076151;28;20479;-73
2023/05/06 14:17:22;;;;;;;0.60;0.50;;;;;;;32.55;25.58;100280.50;5066891;28;20939;-73
2023/05/06 14:19:47;;;;;;;0.70;0.30;;;;;;;32.40;25.94;100293.69;5088380;28;20413;-73
2023/05/06 14:22:12;;;;;;;1.53;0.37;;;;;;;32.21;26.08;100282.78;5085930;28;20437;-73
2023/05/06 14:24:38;;;;;;;1.00;0.40;;;;;;;32.10;25.67;100279.97;5088261;28;20888;-73
2023/05/06 14:27:03;;;;;;;0.40;0.40;;;;;;;32.17;25.44;100282.81;5083140;28;20457;-73
2023/05/06 14:29:28;;;;;;;0.30;0.30;;;;;;;32.34;25.58;100281.22;5087086;28;20508;-73
2023/05/06 14:31:54;;;;;;;0.80;0.50;;;;;;;32.33;25.31;100277.66;5058121;28;20484;-73
2023/05/06 14:34:19;;;;;;;0.33;0.33;;;;;;;32.18;25.71;100277.97;5072881;28;20407;-73
2023/05/06 14:36:44;;;;;;;0.77;0.77;;;;;;;32.02;26.38;100269.06;5084252;28;20408;-73
2023/05/06 14:39:09;;;;;;;1.93;1.93;;;;;;;31.66;27.12;100268.09;5085587;28;20732;-73
2023/05/06 14:41:35;;;;;;;2.10;1.40;;;;;;;31.38;27.34;100265.91;5082357;28;20402;-73
2023/05/06 14:44:00;;;;;;;19.70;19.00;;;;;;;31.23;27.51;100267.78;5087966;28;20397;-73
2023/05/06 14:46:25;;;;;;;16.45;15.77;;;;;;;31.22;27.70;100266.16;5086496;28;20382;-73
2023/05/06 14:48:50;;;;;;;1999.90;999.90;;;;;;;31.10;27.84;100272.06;5077866;28;20387;-73
2023/05/06 14:51:16;;;;;;;1999.90;999.90;;;;;;;31.08;27.47;100266.06;5066250;28;20406;-73
2023/05/06 14:53:41;;;;;;;1999.90;999.90;;;;;;;31.09;27.28;100264.06;5087671;28;20386;-73
2023/05/06 14:56:09;;;;;;;1999.90;999.90;;;;;;;31.05;27.52;100258.44;5087347;28;20548;-73
2023/05/06 14:58:34;;;;;;;1999.90;999.90;;;;;;;30.85;27.75;100257.84;5083718;28;20407;-73
2023/05/06 15:01:00;;;;;;;1999.90;999.90;;;;;;;30.48;28.28;100251.47;5085180;28;20406;-73
2023/05/06 15:03:25;;;;;;;1999.90;999.90;;;;;;;29.99;28.91;100257.28;5087601;28;20471;-73
2023/05/06 15:05:50;;;;;;;1999.90;999.90;;;;;;;29.46;29.08;100253.72;5087892;28;20722;-73
2023/05/06 15:08:15;;;;;;;1999.90;999.90;;;;;;;29.12;29.40;100255.56;5084148;28;20916;-73
2023/05/06 15:10:41;;;;;;;1999.90;999.90;;;;;;;29.08;29.72;100245.53;5081536;28;20742;-73
2023/05/06 15:13:06;;;;;;;1999.90;999.90;;;;;;;29.09;30.71;100245.16;5050308;28;20432;-73
2023/05/06 15:15:32;;;;;;;1999.90;999.90;;;;;;;28.98;30.35;100249.72;5087134;28;20895;-73
2023/05/06 15:17:57;;;;;;;1999.90;999.90;;;;;;;28.82;30.43;100249.06;5084870;28;20393;-73
2023/05/06 15:20:22;;;;;;;1999.90;999.90;;;;;;;28.68;30.50;100248.84;5082537;28;20475;-73
2023/05/06 15:22:48;;;;;;;1999.90;999.90;;;;;;;28.64;30.53;100248.75;5068977;28;20402;-73
2023/05/06 15:25:13;;;;;;;1929.33;724.67;;;;;;;28.57;31.28;100253.38;5068418;28;20439;-73
2023/05/06 15:27:38;;;;;;;1999.90;999.90;;;;;;;28.57;31.83;100253.38;5082992;28;20413;-73
2023/05/06 15:30:04;;;;;;;1999.90;999.90;;;;;;;28.47;31.80;100254.78;5083229;28;20750;-73
2023/05/06 15:32:30;;;;;;;1999.90;999.90;;;;;;;28.41;32.55;100247.09;5086590;28;20421;-73
2023/05/06 15:34:55;;;;;;;1999.90;999.90;;;;;;;28.26;32.18;100244.03;5077061;28;20565;-73
2023/05/06 15:37:21;;;;;;;1999.90;999.90;;;;;;;28.22;31.69;100245.16;5086784;28;20439;-73
2023/05/06 15:39:46;;;;;;;1999.90;999.90;;;;;;;28.14;31.36;100237.81;5075982;28;20495;-73
2023/05/06 15:42:12;;;;;;;1999.90;999.90;;;;;;;28.01;31.37;100245.50;5062655;28;20486;-73
2023/05/06 15:44:37;;;;;;;1999.90;999.90;;;;;;;27.89;32.30;100245.66;5086774;28;20780;-74
2023/05/06 15:47:02;;;;;;;1999.90;999.90;;;;;;;27.69;32.75;100246.81;5086833;28;20752;-73
2023/05/06 15:49:30;;;;;;;1999.90;999.90;;;;;;;27.47;33.36;100241.91;5084200;28;20857;-73
2023/05/06 15:51:55;;;;;;;1999.90;999.90;;;;;;;27.34;33.36;100243.97;5075851;28;20474;-74
2023/05/06 15:54:21;;;;;;;1999.90;999.90;;;;;;;27.20;33.78;100236.09;5086631;28;20852;-75
2023/05/06 15:56:46;;;;;;;1999.90;999.90;;;;;;;27.17;33.61;100239.59;5086207;28;20386;-74
2023/05/06 15:59:11;;;;;;;1999.90;999.90;;;;;;;27.30;33.16;100234.72;5084882;28;20621;-73
2023/05/06 16:01:37;;;;;;;1999.90;999.90;;;;;;;27.30;32.96;100235.53;5071436;28;20404;-74
2023/05/06 16:04:02;;;;;;;1999.90;999.90;;;;;;;27.24;32.84;100238.97;5068479;28;20382;-74
2023/05/06 16:06:28;;;;;;;1999.90;999.90;;;;;;;27.12;33.16;100239.09;5086525;28;20390;-73
2023/05/06 16:08:53;;;;;;;1999.90;999.90;;;;;;;26.96;34.02;100235.50;5085731;28;20409;-74
2023/05/06 16:11:18;;;;;;;1999.90;999.90;;;;;;;26.80;34.34;100227.16;5057554;28;20407;-74
2023/05/06 16:13:45;;;;;;;1999.90;807.43;;;;;;;26.67;34.85;100226.44;5065518;28;20397;-74
2023/05/06 16:16:10;;;;;;;1999.90;826.47;;;;;;;26.47;35.16;100235.00;5086365;28;20385;-74
2023/05/06 16:18:35;;;;;;;1999.90;591.45;;;;;;;26.27;35.38;100225.75;5086287;28;20402;-74
2023/05/06 16:21:01;;;;;;;12.43;12.03;;;;;;;26.20;35.96;100220.81;5071498;28;20411;-74
2023/05/06 16:23:26;;;;;;;0.80;0.67;;;;;;;26.13;35.98;100220.56;5084447;28;20398;-74
2023/05/06 16:25:52;;;;;;;3.90;0.60;;;;;;;26.08;35.58;100222.81;5086360;28;20393;-74
2023/05/06 16:28:17;;;;;;;0.57;0.57;;;;;;;26.01;35.57;100226.19;5086498;28;20398;-74
2023/05/06 16:30:45;;;;;;;1.10;0.70;;;;;;;25.96;35.56;100222.84;5075895;28;20482;-74
2023/05/06 16:33:13;;;;;;;2.30;1.00;;;;;;;25.92;35.62;100219.97;5101844;28;20403;-74
2023/05/06 16:35:39;;;;;;;0.77;0.60;;;;;;;25.89;35.68;100219.84;5090356;28;20736;-74
2023/05/06 16:38:04;;;;;;;1.80;0.90;;;;;;;25.88;36.21;100215.47;5072471;28;20394;-74
2023/05/06 16:40:30;;;;;;;1.27;0.70;;;;;;;25.86;37.79;100215.00;5080059;28;20500;-74
2023/05/06 16:42:55;;;;;;;0.70;0.60;;;;;;;25.78;37.97;100216.78;5087031;28;20388;-74
2023/05/06 16:45:21;;;;;;;1.35;0.50;;;;;;;25.74;37.66;100216.69;5090322;28;20843;-74
2023/05/06 16:47:47;;;;;;;1.40;0.53;;;;;;;25.67;38.38;100216.47;5090224;28;20509;-74
2023/05/06 16:50:12;;;;;;;0.40;0.40;;;;;;;25.61;38.27;100214.28;5083988;28;21027;-74
2023/05/06 16:52:38;;;;;;;1.25;0.95;;;;;;;25.54;38.53;100217.66;5068372;28;20410;-75
2023/05/06 16:55:05;;;;;;;0.77;0.70;;;;;;;25.51;38.61;100209.22;5089363;28;20386;-74
2023/05/06 16:57:30;;;;;;;0.77;0.77;;;;;;;25.37;39.12;100211.53;5084562;28;20395;-74
2023/05/06 16:59:56;;;;;;;2.97;0.67;;;;;;;25.26;39.25;100209.22;5084071;28;20402;-74
2023/05/06 17:02:21;;;;;;;2.30;0.80;;;;;;;25.17;39.53;100208.56;5086084;28;20476;-75
2023/05/06 17:04:49;;;;;;;1.17;0.80;;;;;;;24.95;39.52;100203.50;5084837;28;20398;-74
2023/05/06 17:07:14;;;;;;;4.13;0.77;;;;;;;24.86;39.73;100207.53;5089849;28;20375;-74
2023/05/06 17:09:39;;;;;;;3.40;1.20;;;;;;;24.83;39.97;100203.47;5089721;28;20406;-74
2023/05/06 17:12:06;;;;;;;0.70;0.70;;;;;;;24.80;40.00;100196.63;5067595;28;20413;-75
2023/05/06 17:14:33;;;;;;;0.90;0.63;;;;;;;24.78;40.17;100210.03;5102978;28;20766;-74
2023/05/06 17:17:01;;;;;;;1.33;0.55;;;;;;;24.72;40.18;100202.31;5089562;28;20933;-74
2023/05/06 17:19:27;;;;;;;0.85;0.60;;;;;;;24.69;40.37;100198.25;5071474;28;20417;-74
2023/05/06 17:21:52;;;;;;;2.40;0.80;;;;;;;24.66;40.29;100198.97;5073102;28;20403;-74
2023/05/06 17:24:17;;;;;;;0.70;0.70;;;;;;;24.63;40.34;100198.84;5083424;28;20490;-74
2023/05/06 17:26:42;;;;;;;0.97;0.97;;;;;;;24.57;40.31;100197.41;5063714;28;20453;-74
2023/05/06 17:29:08;;;;;;;2.03;0.87;;;;;;;24.50;40.58;100197.97;5082932;28;20868;-74
2023/05/06 17:31:33;;;;;;;0.90;0.90;;;;;;;24.45;41.32;100201.00;5048552;28;20431;-74
2023/05/06 17:33:59;;;;;;;3.75;0.60;;;;;;;24.41;41.15;100196.47;5085701;28;20505;-74
2023/05/06 17:36:24;;;;;;;0.63;0.63;;;;;;;24.32;42.09;100201.31;5089008;28;20460;-74
2023/05/06 17:39:03;;;;;;;1.03;0.93;;;;;;;24.23;41.78;100196.69;5089170;28;20453;-74
2023/05/06 17:41:29;;;;;;;0.88;0.80;;;;;;;24.18;41.92;100194.13;5066298;28;20411;-74
2023/05/06 17:43:54;;;;;;;1.00;0.70;;;;;;;24.11;41.79;100201.31;5071468;28;20412;-74
2023/05/06 17:46:20;;;;;;;1.50;1.15;;;;;;;24.05;42.14;100191.63;5071121;28;20757;-74
2023/05/06 17:48:45;;;;;;;2.83;1.43;;;;;;;23.96;42.75;100191.72;5089022;28;20428;-74
2023/05/06 17:51:10;;;;;;;3.90;2.87;;;;;;;23.90;42.50;100198.63;5074620;28;20898;-74
2023/05/06 17:53:37;;;;;;;8.70;8.50;;;;;;;23.84;42.79;100199.16;5073264;28;20403;-74
2023/05/06 17:56:03;;;;;;;85.97;81.97;;;;;;;23.76;43.12;100187.00;5083462;28;20469;-74
2023/05/06 17:58:28;;;;;;;667.95;622.42;;;;;;;23.72;43.47;100186.88;5088882;28;20748;-74
2023/05/06 18:00:54;;;;;;;62.43;59.57;;;;;;;23.67;43.34;100192.63;5073661;28;20496;-74
2023/05/06 18:03:19;;;;;;;221.07;209.93;;;;;;;23.63;43.41;100188.09;5076703;28;20412;-74
2023/05/06 18:05:45;;;;;;;1999.90;999.90;;;;;;;23.58;43.44;100193.81;5086878;28;20500;-74
2023/05/06 18:08:10;;;;;;;1439.18;999.90;;;;;;;23.53;43.65;100194.03;5088210;28;20734;-74
2023/05/06 18:10:35;;;;;;;876.73;808.30;;;;;;;23.50;43.25;100195.53;5086123;28;20386;-74
2023/05/06 18:13:01;;;;;;;1999.90;999.90;;;;;;;23.47;43.60;100198.16;5066567;28;20796;-74
2023/05/06 18:15:26;;;;;;;1999.90;999.90;;;;;;;23.45;43.54;100194.91;5085735;28;20392;-74
2023/05/06 18:17:51;;;;;;;1999.90;999.90;;;;;;;23.36;44.73;100194.94;5088239;28;20443;-74
2023/05/06 18:20:17;;;;;;;1819.80;999.90;;;;;;;23.31;44.49;100199.88;5088204;28;20881;-74
2023/05/06 18:22:42;;;;;;;1022.53;935.50;;;;;;;23.23;44.59;100199.59;5085135;28;20489;-74
2023/05/06 18:25:08;;;;;;;1999.90;999.90;;;;;;;23.18;45.00;100201.75;5084434;28;20388;-74
2023/05/06 18:27:33;;;;;;;1999.90;385.95;;;;;;;23.14;44.89;100204.38;5087889;28;20389;-74
2023/05/06 18:29:59;;;;;;;1999.90;999.90;;;;;;;23.10;45.47;100200.66;5088089;28;20813;-74
2023/05/06 18:32:24;;;;;;;1999.90;999.90;;;;;;;23.02;46.13;100214.53;5084225;28;20941;-74
2023/05/06 18:34:49;;;;;;;1999.90;999.90;;;;;;;22.96;46.99;100216.66;5081005;28;20509;-74
2023/05/06 18:37:15;;;;;;;1999.90;999.90;;;;;;;22.91;47.11;100213.28;5086412;28;20384;-74
2023/05/06 18:39:40;;;;;;;1999.90;999.90;;;;;;;22.85;46.92;100222.91;5082436;28;20458;-74
2023/05/06 18:42:06;;;;;;;1999.90;999.90;;;;;;;22.81;46.49;100217.22;5082675;28;20795;-74
2023/05/06 18:44:31;;;;;;;1999.90;999.90;;;;;;;22.77;46.57;100218.22;5077811;28;20407;-74
2023/05/06 18:46:56;;;;;;;1999.90;999.90;;;;;;;22.70;47.00;100219.53;5061194;28;20403;-74
2023/05/06 18:49:22;;;;;;;1999.90;999.90;;;;;;;22.63;47.32;100216.44;5065737;28;20402;-74
2023/05/06 18:51:47;;;;;;;1999.90;999.90;;;;;;;22.59;47.84;100220.22;5079045;28;20757;-74
2023/05/06 18:54:12;;;;;;;1999.90;999.90;;;;;;;22.52;48.30;100209.69;5085423;28;20386;-74
2023/05/06 18:56:37;;;;;;;1999.90;999.90;;;;;;;22.47;48.56;100218.13;5083859;28;20396;-74
2023/05/06 18:59:03;;;;;;;1999.90;999.90;;;;;;;22.40;48.72;100217.81;5087554;28;20441;-74
2023/05/06 19:01:28;;;;;;;1999.90;999.90;;;;;;;22.35;49.37;100226.28;5078038;28;20929;-74
2023/05/06 19:03:53;;;;;;;1999.90;999.90;;;;;;;22.31;49.39;100232.78;5076091;28;20483;-74
2023/05/06 19:06:19;;;;;;;1999.90;999.90;;;;;;;22.27;49.38;100229.88;5065507;28;20391;-74
2023/05/06 19:08:44;;;;;;;1999.90;999.90;;;;;;;22.24;49.12;100230.53;5073398;28;20565;-75
2023/05/06 19:11:14;;;;;;;1999.90;999.90;;;;;;;22.19;49.35;100233.47;5083200;28;20404;-74
2023/05/06 19:13:43;;;;;;;1999.90;999.90;;;;;;;22.13;50.08;100235.56;5087224;28;20378;-74
2023/05/06 19:16:09;;;;;;;1999.90;999.90;;;;;;;22.09;50.46;100220.00;5078539;28;20406;-74